createdAt,value
2019-03-12T00:01:12.306Z,49.80
2019-03-12T00:03:39.778Z,49.80
2019-03-12T00:06:07.296Z,49.80
2019-03-12T00:08:34.777Z,49.90
2019-03-12T00:11:02.263Z,49.90
2019-03-12T00:13:29.729Z,49.80
2019-03-12T00:15:57.229Z,49.90
2019-03-12T00:18:24.699Z,49.90
2019-03-12T00:20:52.163Z,49.90
2019-03-12T00:23:19.633Z,49.90
2019-03-12T00:25:47.093Z,49.90
2019-03-12T00:28:14.562Z,50.00
2019-03-12T00:30:42.031Z,50.00
2019-03-12T00:33:09.508Z,50.00
2019-03-12T00:35:37.385Z,49.90
2019-03-12T00:38:04.855Z,49.90
2019-03-12T00:40:32.321Z,50.00
2019-03-12T00:42:59.791Z,49.80
2019-03-12T00:45:27.259Z,49.80
2019-03-12T00:47:54.722Z,49.80
2019-03-12T00:50:22.214Z,49.80
2019-03-12T00:52:49.689Z,49.80
2019-03-12T00:55:17.151Z,49.80
2019-03-12T00:57:44.629Z,49.90
2019-03-12T01:00:16.075Z,49.90
2019-03-12T01:02:43.551Z,49.90
2019-03-12T01:05:11.022Z,50.50
2019-03-12T01:07:38.495Z,49.90
2019-03-12T01:10:07.592Z,49.80
2019-03-12T01:12:35.054Z,49.90
2019-03-12T01:15:02.527Z,49.90
2019-03-12T01:17:29.989Z,49.90
2019-03-12T01:19:57.463Z,49.90
2019-03-12T01:22:24.919Z,50.50
2019-03-12T01:24:52.387Z,50.00
2019-03-12T01:27:19.849Z,50.00
2019-03-12T01:29:47.320Z,49.90
2019-03-12T01:32:14.783Z,49.90
2019-03-12T01:34:42.250Z,49.90
2019-03-12T01:37:09.714Z,49.90
2019-03-12T01:39:37.182Z,49.90
2019-03-12T01:42:04.645Z,49.90
2019-03-12T01:44:32.110Z,49.90
2019-03-12T01:46:59.582Z,49.90
2019-03-12T01:49:27.051Z,49.80
2019-03-12T01:51:54.516Z,49.80
2019-03-12T01:54:21.990Z,49.90
2019-03-12T01:56:49.465Z,49.80
2019-03-12T01:59:16.942Z,49.80
2019-03-12T02:01:44.410Z,49.80
2019-03-12T02:04:11.885Z,49.80
2019-03-12T02:06:39.347Z,50.40
2019-03-12T02:09:07.201Z,49.70
2019-03-12T02:11:34.659Z,49.70
2019-03-12T02:14:03.938Z,49.80
2019-03-12T02:16:34.807Z,49.80
2019-03-12T02:19:00.918Z,49.70
2019-03-12T02:21:28.445Z,49.80
2019-03-12T02:23:56.015Z,49.80
2019-03-12T02:26:23.478Z,49.90
2019-03-12T02:28:50.948Z,50.00
2019-03-12T02:31:18.416Z,49.90
2019-03-12T02:33:45.884Z,49.90
2019-03-12T02:36:13.364Z,49.90
2019-03-12T02:38:40.843Z,49.90
2019-03-12T02:41:08.356Z,50.60
2019-03-12T02:43:35.861Z,49.90
2019-03-12T02:46:03.351Z,50.00
2019-03-12T02:48:30.881Z,49.90
2019-03-12T02:50:58.347Z,50.00
2019-03-12T02:53:25.818Z,49.90
2019-03-12T02:55:53.279Z,50.00
2019-03-12T02:58:20.751Z,50.00
2019-03-12T03:00:48.311Z,49.90
2019-03-12T03:03:16.227Z,49.90
2019-03-12T03:05:45.346Z,49.80
2019-03-12T03:08:12.911Z,49.80
2019-03-12T03:10:40.378Z,49.80
2019-03-12T03:13:07.913Z,49.80
2019-03-12T03:15:37.042Z,49.80
2019-03-12T03:18:04.506Z,49.80
2019-03-12T03:20:31.981Z,49.80
2019-03-12T03:22:59.439Z,49.70
2019-03-12T03:25:26.918Z,49.70
2019-03-12T03:27:54.383Z,49.80
2019-03-12T03:30:22.722Z,50.40
2019-03-12T03:32:50.335Z,49.90
2019-03-12T03:35:17.817Z,49.80
2019-03-12T03:37:45.284Z,49.80
2019-03-12T03:40:17.389Z,49.80
2019-03-12T03:42:44.930Z,49.80
2019-03-12T03:45:12.398Z,49.80
2019-03-12T03:47:39.877Z,49.90
2019-03-12T03:50:09.011Z,49.90
2019-03-12T03:52:36.764Z,50.00
2019-03-12T03:55:05.699Z,49.90
2019-03-12T03:57:33.180Z,49.80
2019-03-12T04:00:00.870Z,49.80
2019-03-12T04:02:28.727Z,49.80
2019-03-12T04:04:56.207Z,49.80
2019-03-12T04:07:23.748Z,49.90
2019-03-12T04:09:51.284Z,49.80
2019-03-12T04:12:18.778Z,49.80
2019-03-12T04:14:46.250Z,49.80
2019-03-12T04:17:13.720Z,49.80
2019-03-12T04:19:41.200Z,49.70
2019-03-12T04:22:08.650Z,49.80
2019-03-12T04:24:36.479Z,49.70
2019-03-12T04:27:04.014Z,49.70
2019-03-12T04:29:31.504Z,49.70
2019-03-12T04:31:58.968Z,49.80
2019-03-12T04:34:26.721Z,49.80
2019-03-12T04:36:54.182Z,49.70
2019-03-12T04:39:21.648Z,49.70
2019-03-12T04:41:49.111Z,49.80
2019-03-12T04:44:16.582Z,49.80
2019-03-12T04:46:44.054Z,49.70
2019-03-12T04:49:11.518Z,49.70
2019-03-12T04:51:38.989Z,49.80
2019-03-12T04:54:06.482Z,49.90
2019-03-12T04:56:33.934Z,49.80
2019-03-12T04:59:01.417Z,50.00
2019-03-12T05:01:28.882Z,49.80
2019-03-12T05:03:56.368Z,49.80
2019-03-12T05:06:23.834Z,49.70
2019-03-12T05:08:51.362Z,49.80
2019-03-12T05:11:19.079Z,49.80
2019-03-12T05:13:50.829Z,49.80
2019-03-12T05:16:18.299Z,49.80
2019-03-12T05:18:45.771Z,49.80
2019-03-12T05:21:13.243Z,50.00
2019-03-12T05:23:40.710Z,49.80
2019-03-12T05:26:08.187Z,49.70
2019-03-12T05:28:35.646Z,49.60
2019-03-12T05:31:03.118Z,49.50
2019-03-12T05:33:30.590Z,49.40
2019-03-12T05:35:58.058Z,49.40
2019-03-12T05:38:25.529Z,49.40
2019-03-12T05:40:52.998Z,49.40
2019-03-12T05:43:20.462Z,49.40
2019-03-12T05:45:48.045Z,49.20
2019-03-12T05:48:15.506Z,49.80
2019-03-12T05:50:42.974Z,49.20
2019-03-12T05:53:12.177Z,49.10
2019-03-12T05:55:39.658Z,49.10
2019-03-12T05:58:07.126Z,49.10
2019-03-12T06:00:34.630Z,49.00
2019-03-12T06:03:02.173Z,49.10
2019-03-12T06:05:29.671Z,49.00
2019-03-12T06:07:57.135Z,49.10
2019-03-12T06:10:24.606Z,49.20
2019-03-12T06:12:52.075Z,49.10
2019-03-12T06:15:19.547Z,49.00
2019-03-12T06:17:47.019Z,49.00
2019-03-12T06:20:14.850Z,49.10
2019-03-12T06:22:42.349Z,48.90
2019-03-12T06:25:10.081Z,48.80
2019-03-12T06:27:37.553Z,48.80
2019-03-12T06:30:06.652Z,48.70
2019-03-12T06:32:41.469Z,48.70
2019-03-12T06:35:10.685Z,48.70
2019-03-12T06:37:56.551Z,48.70
2019-03-12T06:40:34.605Z,48.60
2019-03-12T06:43:06.659Z,48.70
2019-03-12T06:45:38.715Z,48.70
2019-03-12T06:48:13.686Z,48.60
2019-03-12T06:50:42.786Z,48.70
2019-03-12T06:53:14.607Z,48.60
2019-03-12T06:55:52.570Z,48.50
2019-03-12T06:58:30.327Z,48.50
2019-03-12T07:01:08.005Z,48.50
2019-03-12T07:03:44.934Z,48.50
2019-03-12T07:06:29.194Z,48.50
2019-03-12T07:09:16.650Z,48.60
2019-03-12T07:11:48.358Z,48.70
2019-03-12T07:14:22.485Z,49.00
2019-03-12T07:16:59.881Z,48.90
2019-03-12T07:19:34.767Z,49.00
2019-03-12T07:22:15.606Z,49.00
2019-03-12T07:24:56.958Z,48.90
2019-03-12T07:27:26.079Z,48.90
2019-03-12T07:29:57.891Z,48.70
2019-03-12T07:32:35.800Z,48.50
2019-03-12T07:35:23.383Z,48.50
2019-03-12T07:38:08.608Z,48.50
2019-03-12T07:40:37.727Z,49.00
2019-03-12T07:43:23.607Z,48.50
2019-03-12T07:45:52.706Z,48.50
2019-03-12T07:48:21.826Z,48.50
2019-03-12T07:50:50.962Z,48.40
2019-03-12T07:53:20.131Z,48.50
2019-03-12T07:56:01.168Z,48.40
2019-03-12T07:58:35.760Z,48.40
2019-03-12T08:01:12.842Z,48.30
2019-03-12T08:03:44.857Z,48.20
2019-03-12T08:06:28.887Z,48.10
2019-03-12T08:09:14.570Z,48.00
2019-03-12T08:11:46.409Z,47.80
2019-03-12T08:14:15.543Z,47.90
2019-03-12T08:17:01.026Z,47.70
2019-03-12T08:19:30.152Z,47.70
2019-03-12T08:22:05.243Z,47.90
2019-03-12T08:24:34.362Z,48.00
2019-03-12T08:27:03.477Z,48.00
2019-03-12T08:29:35.246Z,48.00
2019-03-12T08:32:04.362Z,48.10
2019-03-12T08:34:42.766Z,48.10
2019-03-12T08:37:30.397Z,47.90
2019-03-12T08:40:02.229Z,48.00
2019-03-12T08:42:54.162Z,47.70
2019-03-12T08:45:20.322Z,47.70
2019-03-12T08:47:58.311Z,47.50
2019-03-12T08:50:42.655Z,47.50
2019-03-12T08:53:14.406Z,47.50
2019-03-12T08:55:43.515Z,47.50
2019-03-12T08:58:29.072Z,47.40
2019-03-12T09:01:13.231Z,47.40
2019-03-12T09:03:45.291Z,47.30
2019-03-12T09:06:26.737Z,47.10
2019-03-12T09:09:12.403Z,47.30
2019-03-12T09:11:44.301Z,47.40
2019-03-12T09:14:16.398Z,47.40
2019-03-12T09:16:54.755Z,47.40
2019-03-12T09:19:32.957Z,47.60
2019-03-12T09:22:18.722Z,47.40
2019-03-12T09:24:47.848Z,47.40
2019-03-12T09:27:16.998Z,48.20
2019-03-12T09:29:46.361Z,47.50
2019-03-12T09:32:15.543Z,47.50
2019-03-12T09:34:48.110Z,47.80
2019-03-12T09:37:17.230Z,47.50
2019-03-12T09:39:55.138Z,47.60
2019-03-12T09:42:30.185Z,47.40
2019-03-12T09:44:59.290Z,47.50
2019-03-12T09:47:34.430Z,47.50
2019-03-12T09:50:03.590Z,47.50
2019-03-12T09:52:41.735Z,47.60
2019-03-12T09:55:13.773Z,47.60
2019-03-12T09:57:51.918Z,47.60
2019-03-12T10:00:30.562Z,47.50
2019-03-12T10:03:14.762Z,47.60
2019-03-12T10:05:47.007Z,47.50
2019-03-12T10:08:32.626Z,47.50
2019-03-12T10:11:07.530Z,47.50
2019-03-12T10:13:36.858Z,47.50
2019-03-12T10:16:12.122Z,47.40
2019-03-12T10:18:47.362Z,47.40
2019-03-12T10:21:16.506Z,47.40
2019-03-12T10:23:45.659Z,47.50
2019-03-12T10:26:24.016Z,47.60
2019-03-12T10:29:02.149Z,47.60
2019-03-12T10:31:47.918Z,47.60
2019-03-12T10:34:28.853Z,47.60
2019-03-12T10:37:11.910Z,47.40
2019-03-12T10:39:47.578Z,47.30
2019-03-12T10:42:16.693Z,47.30
2019-03-12T10:44:45.846Z,47.20
2019-03-12T10:47:14.958Z,47.30
2019-03-12T10:49:42.438Z,47.40
2019-03-12T10:52:09.910Z,47.30
2019-03-12T10:54:37.392Z,47.20
2019-03-12T10:57:04.868Z,47.20
2019-03-12T10:59:32.349Z,47.10
2019-03-12T11:01:59.907Z,47.00
2019-03-12T11:04:27.476Z,46.90
2019-03-12T11:06:54.982Z,46.90
2019-03-12T11:09:22.499Z,46.90
2019-03-12T11:11:49.972Z,46.80
2019-03-12T11:14:17.434Z,46.80
2019-03-12T11:16:45.250Z,46.80
2019-03-12T11:19:12.713Z,47.10
2019-03-12T11:21:40.186Z,47.10
2019-03-12T11:24:07.663Z,47.00
2019-03-12T11:26:35.136Z,47.00
2019-03-12T11:29:02.601Z,47.00
2019-03-12T11:31:30.067Z,47.00
2019-03-12T11:33:57.535Z,46.90
2019-03-12T11:36:25.020Z,46.90
2019-03-12T11:38:52.539Z,47.00
2019-03-12T11:41:20.166Z,47.00
2019-03-12T11:43:47.671Z,47.00
2019-03-12T11:46:15.172Z,46.90
2019-03-12T11:48:42.687Z,47.00
2019-03-12T11:51:10.158Z,46.70
2019-03-12T11:53:37.680Z,46.80
2019-03-12T11:56:05.210Z,46.80
2019-03-12T11:58:32.773Z,46.70
2019-03-12T12:01:01.979Z,46.80
2019-03-12T12:03:29.501Z,46.90
2019-03-12T12:05:56.981Z,46.70
2019-03-12T12:08:24.446Z,46.50
2019-03-12T12:10:52.270Z,46.40
2019-03-12T12:13:19.733Z,46.40
2019-03-12T12:15:47.229Z,47.00
2019-03-12T12:18:14.702Z,46.40
2019-03-12T12:20:42.171Z,46.40
2019-03-12T12:23:09.647Z,46.40
2019-03-12T12:25:37.116Z,46.40
2019-03-12T12:28:04.586Z,46.40
2019-03-12T12:30:32.063Z,47.00
2019-03-12T12:32:59.534Z,46.50
2019-03-12T12:35:27.000Z,46.50
2019-03-12T12:37:54.467Z,46.40
2019-03-12T12:40:22.107Z,46.50
2019-03-12T12:42:49.575Z,46.40
2019-03-12T12:45:18.312Z,46.50
2019-03-12T12:47:45.782Z,46.50
2019-03-12T12:50:13.280Z,46.70
2019-03-12T12:52:40.786Z,46.80
2019-03-12T12:55:09.539Z,46.60
2019-03-12T12:57:37.042Z,46.70
2019-03-12T13:00:06.082Z,46.70
2019-03-12T13:02:33.558Z,46.80
2019-03-12T13:05:01.023Z,46.70
2019-03-12T13:07:28.498Z,46.70
2019-03-12T13:09:55.962Z,46.70
2019-03-12T13:12:23.454Z,46.60
2019-03-12T13:14:50.926Z,46.40
2019-03-12T13:17:18.488Z,46.40
2019-03-12T13:19:45.994Z,46.40
2019-03-12T13:22:13.609Z,46.70
2019-03-12T13:24:41.090Z,46.70
2019-03-12T13:27:08.562Z,46.90
2019-03-12T13:29:36.026Z,46.70
2019-03-12T13:32:12.880Z,46.50
2019-03-12T13:34:32.862Z,46.40
2019-03-12T13:37:00.330Z,46.40
2019-03-12T13:39:27.821Z,46.40
2019-03-12T13:41:55.310Z,46.40
2019-03-12T13:44:22.818Z,46.40
2019-03-12T13:46:50.287Z,46.40
2019-03-12T13:49:17.757Z,46.40
2019-03-12T14:01:48.415Z,46.40
2019-03-12T14:04:15.892Z,46.50
2019-03-12T14:06:43.347Z,46.70
2019-03-12T14:09:11.003Z,46.80
2019-03-12T14:11:38.702Z,46.70
2019-03-12T14:14:06.173Z,46.40
2019-03-12T14:16:33.647Z,46.40
2019-03-12T14:19:01.116Z,46.40
2019-03-12T14:21:30.435Z,46.40
2019-03-12T14:23:59.395Z,46.40
2019-03-12T14:26:26.857Z,46.40
2019-03-12T14:28:54.352Z,46.40
2019-03-12T14:31:21.840Z,46.40
2019-03-12T14:33:49.362Z,46.40
2019-03-12T14:36:16.830Z,46.40
2019-03-12T14:38:44.488Z,46.40
2019-03-12T14:41:11.961Z,46.40
2019-03-12T14:43:39.508Z,46.40
2019-03-12T14:46:06.974Z,46.40
2019-03-12T14:48:38.771Z,46.40
2019-03-12T14:51:07.873Z,46.40
2019-03-12T14:53:35.346Z,46.40
2019-03-12T14:56:02.929Z,46.40
2019-03-12T14:58:30.397Z,46.40
2019-03-12T15:00:57.888Z,46.40
2019-03-12T15:03:25.347Z,46.40
2019-03-12T15:05:52.822Z,46.40
2019-03-12T15:08:20.302Z,46.40
2019-03-12T15:10:47.781Z,46.40
2019-03-12T15:13:15.246Z,46.40
2019-03-12T15:15:42.735Z,46.40
2019-03-12T15:18:10.228Z,46.40
2019-03-12T15:20:37.750Z,46.40
2019-03-12T15:23:05.266Z,46.40
2019-03-12T15:25:32.742Z,46.40
2019-03-12T15:28:00.279Z,46.40
2019-03-12T15:30:28.465Z,46.40
2019-03-12T15:32:55.937Z,46.40
2019-03-12T15:35:23.429Z,46.40
2019-03-12T15:37:50.886Z,46.40
2019-03-12T15:40:18.401Z,46.40
2019-03-12T15:42:45.872Z,47.00
2019-03-12T15:45:13.707Z,46.10
2019-03-12T15:47:41.186Z,45.90
2019-03-12T15:50:10.274Z,45.80
2019-03-12T15:52:37.843Z,45.80
2019-03-12T15:55:05.894Z,45.80
2019-03-12T15:57:33.383Z,45.90
2019-03-12T16:00:00.914Z,45.90
2019-03-12T16:02:28.393Z,45.90
2019-03-12T16:04:55.857Z,46.00
2019-03-12T16:07:23.347Z,46.00
2019-03-12T16:09:50.811Z,45.80
2019-03-12T16:12:18.280Z,45.80
2019-03-12T16:14:45.760Z,45.80
2019-03-12T16:17:13.233Z,45.90
2019-03-12T16:19:40.710Z,45.80
2019-03-12T16:22:08.190Z,45.90
2019-03-12T16:24:35.690Z,45.90
2019-03-12T16:27:03.538Z,45.90
2019-03-12T16:29:31.215Z,46.00
2019-03-12T16:31:59.020Z,46.30
2019-03-12T16:34:26.488Z,46.50
2019-03-12T16:36:53.949Z,46.40
2019-03-12T16:39:21.432Z,46.50
2019-03-12T16:41:48.925Z,46.20
2019-03-12T16:44:16.395Z,46.20
2019-03-12T16:46:43.863Z,46.10
2019-03-12T16:49:11.337Z,46.10
2019-03-12T16:51:38.858Z,46.10
2019-03-12T16:54:06.326Z,46.10
2019-03-12T16:56:44.439Z,46.10
2019-03-12T16:59:02.990Z,46.10
2019-03-12T17:01:30.464Z,46.10
2019-03-12T17:03:57.935Z,46.40
2019-03-12T17:06:25.410Z,46.40
2019-03-12T17:08:52.886Z,46.50
2019-03-12T17:11:20.366Z,46.40
2019-03-12T17:13:47.841Z,46.40
2019-03-12T17:16:15.302Z,46.40
2019-03-12T17:18:42.858Z,46.40
2019-03-12T17:21:10.319Z,46.40
2019-03-12T17:23:37.800Z,46.40
2019-03-12T17:26:05.270Z,46.40
2019-03-12T17:28:32.793Z,46.40
2019-03-12T17:31:00.343Z,46.40
2019-03-12T17:33:27.898Z,46.40
2019-03-12T17:35:55.381Z,46.40
2019-03-12T17:38:22.913Z,46.40
2019-03-12T17:40:50.391Z,46.40
2019-03-12T17:43:17.869Z,46.70
2019-03-12T17:45:45.343Z,46.80
2019-03-12T17:48:12.815Z,46.70
2019-03-12T17:50:40.294Z,46.80
2019-03-12T17:53:07.763Z,47.00
2019-03-12T17:55:35.222Z,47.10
2019-03-12T17:58:02.837Z,47.00
2019-03-12T18:00:31.927Z,47.20
2019-03-12T18:02:59.402Z,47.20
2019-03-12T18:05:26.907Z,47.10
2019-03-12T18:07:54.366Z,47.10
2019-03-12T18:10:21.846Z,47.10
2019-03-12T18:12:49.395Z,47.30
2019-03-12T18:15:20.673Z,47.10
2019-03-12T18:17:48.484Z,47.00
2019-03-12T18:20:16.434Z,46.90
2019-03-12T18:22:43.897Z,47.10
2019-03-12T18:25:12.748Z,47.10
2019-03-12T18:27:40.218Z,47.40
2019-03-12T18:30:09.328Z,47.30
2019-03-12T18:32:36.865Z,47.30
2019-03-12T18:35:05.509Z,47.40
2019-03-12T18:37:33.023Z,47.10
2019-03-12T18:40:00.621Z,47.10
2019-03-12T18:42:28.138Z,47.00
2019-03-12T18:44:55.610Z,46.90
2019-03-12T18:47:23.083Z,47.00
2019-03-12T18:49:50.560Z,46.90
2019-03-12T18:52:18.033Z,46.90
2019-03-12T18:54:45.499Z,46.80
2019-03-12T18:57:15.472Z,46.80
2019-03-12T18:59:42.963Z,46.90
2019-03-12T19:02:10.433Z,47.10
2019-03-12T19:04:37.909Z,47.20
2019-03-12T19:07:05.386Z,47.20
2019-03-12T19:09:32.866Z,47.40
2019-03-12T19:12:00.645Z,47.30
2019-03-12T19:14:29.285Z,47.20
2019-03-12T19:16:56.777Z,47.50
2019-03-12T19:19:24.249Z,47.70
2019-03-12T19:21:51.723Z,48.00
2019-03-12T19:24:19.201Z,48.70
2019-03-12T19:26:46.683Z,48.80
2019-03-12T19:29:14.201Z,48.80
2019-03-12T19:31:46.334Z,49.10
2019-03-12T19:34:14.734Z,49.30
2019-03-12T19:36:42.210Z,49.70
2019-03-12T19:39:09.755Z,49.60
2019-03-12T19:41:37.226Z,50.00
2019-03-12T19:44:04.711Z,50.30
2019-03-12T19:46:32.186Z,50.40
2019-03-12T19:48:59.667Z,50.50
2019-03-12T19:51:27.132Z,50.80
2019-03-12T19:53:54.611Z,51.00
2019-03-12T19:56:22.168Z,51.30
2019-03-12T19:58:49.700Z,51.20
2019-03-12T20:01:17.176Z,51.30
2019-03-12T20:03:44.674Z,51.50
2019-03-12T20:06:12.146Z,51.60
2019-03-12T20:08:39.615Z,51.70
2019-03-12T20:11:25.531Z,51.90
2019-03-12T20:14:09.703Z,51.60
2019-03-12T20:16:41.986Z,52.00
2019-03-12T20:19:16.988Z,52.20
2019-03-12T20:22:02.600Z,52.40
2019-03-12T20:24:48.207Z,52.50
2019-03-12T20:27:20.374Z,52.70
2019-03-12T20:30:06.142Z,53.00
2019-03-12T20:32:35.253Z,53.00
2019-03-12T20:35:10.210Z,52.90
2019-03-12T20:37:39.305Z,52.90
2019-03-12T20:40:14.160Z,53.00
2019-03-12T20:42:52.363Z,53.10
2019-03-12T20:45:21.464Z,53.20
2019-03-12T20:48:07.159Z,53.50
2019-03-12T20:50:38.915Z,53.70
2019-03-12T20:53:20.193Z,53.80
2019-03-12T20:56:06.053Z,54.00
2019-03-12T20:58:51.791Z,54.00
2019-03-12T21:01:37.354Z,53.90
2019-03-12T21:04:22.922Z,54.10
2019-03-12T21:07:02.330Z,54.10
2019-03-12T21:09:40.744Z,54.20
2019-03-12T21:12:15.520Z,54.10
2019-03-12T21:14:44.626Z,54.20
2019-03-12T21:17:30.413Z,54.30
2019-03-12T21:20:16.262Z,54.20
2019-03-12T21:22:54.574Z,54.30
2019-03-12T21:25:35.812Z,54.40
2019-03-12T21:28:16.852Z,54.50
2019-03-12T21:30:44.335Z,54.60
2019-03-12T21:33:15.645Z,54.70
2019-03-12T21:35:40.988Z,54.60
2019-03-12T21:38:08.450Z,54.60
2019-03-12T21:40:35.928Z,54.60
2019-03-12T21:43:03.474Z,54.60
2019-03-12T21:45:30.944Z,54.70
2019-03-12T21:47:58.416Z,54.80
2019-03-12T21:50:25.893Z,55.40
2019-03-12T21:52:53.358Z,54.80
2019-03-12T21:55:20.839Z,54.80
2019-03-12T21:57:48.318Z,54.80
2019-03-12T22:00:17.431Z,54.90
2019-03-12T22:02:44.906Z,54.80
2019-03-12T22:05:12.387Z,54.80
2019-03-12T22:07:39.854Z,54.90
2019-03-12T22:10:08.946Z,54.90
2019-03-12T22:12:36.421Z,54.90
2019-03-12T22:15:05.666Z,54.90
2019-03-12T22:17:33.134Z,55.00
2019-03-12T22:20:00.620Z,55.00
2019-03-12T22:22:29.717Z,55.70
2019-03-12T22:24:57.186Z,55.00
2019-03-12T22:27:24.662Z,55.10
2019-03-12T22:29:52.126Z,55.00
2019-03-12T22:32:19.598Z,55.10
2019-03-12T22:34:47.066Z,55.00
2019-03-12T22:37:14.539Z,55.10
2019-03-12T22:39:41.998Z,55.10
2019-03-12T22:42:09.474Z,55.20
2019-03-12T22:44:36.937Z,55.20
2019-03-12T22:47:04.416Z,55.10
2019-03-12T22:49:31.883Z,55.10
2019-03-12T22:51:59.367Z,55.20
2019-03-12T22:54:26.838Z,55.10
2019-03-12T22:56:54.309Z,55.20
2019-03-12T22:59:21.780Z,55.30
2019-03-12T23:01:49.246Z,55.20
2019-03-12T23:04:16.715Z,55.40
2019-03-12T23:06:44.178Z,55.30
2019-03-12T23:09:11.650Z,55.30
2019-03-12T23:11:39.122Z,55.30
2019-03-12T23:14:06.590Z,55.30
2019-03-12T23:16:34.058Z,55.30
2019-03-12T23:19:01.530Z,55.30
2019-03-12T23:21:29.001Z,55.20
2019-03-12T23:23:56.474Z,55.10
2019-03-12T23:26:23.946Z,55.10
2019-03-12T23:28:51.418Z,55.10
2019-03-12T23:31:18.883Z,55.20
2019-03-12T23:33:46.358Z,55.20
2019-03-12T23:36:13.833Z,55.40
2019-03-12T23:38:41.305Z,55.40
2019-03-12T23:41:08.771Z,55.30
2019-03-12T23:43:36.238Z,55.50
2019-03-12T23:46:03.701Z,55.40
2019-03-12T23:48:31.179Z,55.40
2019-03-12T23:50:58.646Z,55.60
2019-03-12T23:53:26.201Z,55.70
2019-03-12T23:55:53.691Z,55.60
2019-03-12T23:58:21.154Z,55.60
